createdAt,value
2018-06-09T00:00:48.287Z,18.10
2018-06-09T00:03:16.938Z,18.00
2018-06-09T00:05:45.575Z,18.10
2018-06-09T00:08:14.210Z,18.00
2018-06-09T00:10:42.866Z,18.00
2018-06-09T00:13:11.590Z,18.00
2018-06-09T00:15:40.261Z,18.00
2018-06-09T00:18:08.874Z,18.00
2018-06-09T00:20:37.531Z,17.90
2018-06-09T00:23:06.127Z,17.90
2018-06-09T00:25:34.746Z,17.80
2018-06-09T00:28:03.434Z,17.80
2018-06-09T00:30:31.957Z,17.80
2018-06-09T00:33:00.683Z,17.70
2018-06-09T00:35:29.256Z,17.70
2018-06-09T00:37:57.826Z,17.60
2018-06-09T00:40:26.469Z,17.60
2018-06-09T00:42:55.067Z,17.60
2018-06-09T00:45:23.772Z,17.60
2018-06-09T00:47:52.421Z,17.70
2018-06-09T00:50:21.126Z,17.80
2018-06-09T00:52:49.717Z,17.80
2018-06-09T00:55:18.400Z,17.70
2018-06-09T00:57:46.990Z,17.70
2018-06-09T01:00:15.587Z,17.70
2018-06-09T01:02:44.155Z,17.70
2018-06-09T01:05:12.791Z,17.50
2018-06-09T01:07:41.455Z,17.40
2018-06-09T01:10:10.106Z,17.30
2018-06-09T01:12:38.789Z,17.30
2018-06-09T01:15:07.395Z,17.20
2018-06-09T01:17:36.156Z,17.10
2018-06-09T01:20:04.778Z,17.10
2018-06-09T01:22:33.426Z,17.00
2018-06-09T01:25:02.088Z,17.00
2018-06-09T01:27:30.724Z,17.00
2018-06-09T01:29:59.399Z,17.00
2018-06-09T01:32:27.985Z,17.00
2018-06-09T01:34:56.680Z,16.90
2018-06-09T01:37:25.361Z,16.90
2018-06-09T01:39:54.094Z,16.80
2018-06-09T01:42:22.722Z,16.80
2018-06-09T01:44:51.323Z,16.80
2018-06-09T01:47:19.955Z,16.90
2018-06-09T01:49:48.546Z,16.90
2018-06-09T01:52:17.120Z,17.00
2018-06-09T01:54:45.774Z,17.00
2018-06-09T01:57:14.307Z,16.90
2018-06-09T01:59:52.498Z,17.00
2018-06-09T02:02:21.103Z,16.90
2018-06-09T02:07:17.972Z,16.80
2018-06-09T02:09:46.767Z,16.70
2018-06-09T02:12:15.429Z,16.70
2018-06-09T02:14:44.055Z,16.70
2018-06-09T02:17:12.676Z,16.70
2018-06-09T02:19:42.351Z,16.70
2018-06-09T02:22:11.193Z,16.70
2018-06-09T02:24:39.762Z,16.70
2018-06-09T02:27:08.390Z,16.70
2018-06-09T02:29:40.341Z,16.70
2018-06-09T02:32:08.894Z,16.70
2018-06-09T02:34:37.544Z,16.70
2018-06-09T02:37:06.167Z,16.60
2018-06-09T02:39:34.764Z,16.70
2018-06-09T02:42:03.406Z,16.60
2018-06-09T02:44:31.998Z,16.50
2018-06-09T02:47:00.584Z,16.60
2018-06-09T02:49:33.702Z,16.50
2018-06-09T02:52:02.322Z,16.50
2018-06-09T02:54:30.965Z,16.40
2018-06-09T02:56:59.751Z,16.50
2018-06-09T02:59:28.423Z,16.60
2018-06-09T03:01:57.059Z,16.50
2018-06-09T03:04:25.969Z,16.50
2018-06-09T03:06:54.709Z,16.50
2018-06-09T03:09:23.560Z,16.50
2018-06-09T03:11:52.157Z,16.50
2018-06-09T03:14:20.898Z,16.60
2018-06-09T03:16:49.501Z,16.50
2018-06-09T03:19:18.133Z,16.50
2018-06-09T03:21:46.749Z,16.60
2018-06-09T03:24:15.443Z,16.50
2018-06-09T03:26:44.002Z,16.50
2018-06-09T03:29:12.710Z,16.60
2018-06-09T03:31:41.356Z,16.60
2018-06-09T03:34:09.922Z,16.60
2018-06-09T03:36:38.535Z,16.60
2018-06-09T03:39:08.231Z,16.60
2018-06-09T03:41:36.811Z,16.60
2018-06-09T03:44:05.377Z,16.70
2018-06-09T03:46:33.902Z,16.80
2018-06-09T03:49:02.982Z,16.90
2018-06-09T03:51:31.562Z,16.90
2018-06-09T03:54:00.200Z,16.80
2018-06-09T03:56:28.801Z,16.90
2018-06-09T04:01:25.751Z,16.90
2018-06-09T04:03:54.331Z,17.00
2018-06-09T04:06:23.090Z,17.00
2018-06-09T04:08:51.726Z,17.10
2018-06-09T04:11:20.329Z,17.20
2018-06-09T04:13:48.977Z,17.40
2018-06-09T04:16:17.591Z,17.50
2018-06-09T04:18:46.256Z,17.50
2018-06-09T04:23:43.212Z,17.60
2018-06-09T04:26:11.800Z,17.50
2018-06-09T04:28:40.426Z,17.60
2018-06-09T04:31:09.102Z,17.90
2018-06-09T04:33:37.739Z,18.30
2018-06-09T04:36:06.362Z,18.50
2018-06-09T04:41:03.350Z,19.80
2018-06-09T04:43:32.093Z,20.80
2018-06-09T04:46:00.757Z,21.40
2018-06-09T04:48:29.458Z,21.70
2018-06-09T04:50:58.079Z,21.70
2018-06-09T04:55:55.350Z,21.90
2018-06-09T04:58:24.041Z,21.80
2018-06-09T05:00:52.706Z,21.30
2018-06-09T05:03:21.334Z,20.90
2018-06-09T05:05:49.993Z,20.50
2018-06-09T05:08:18.705Z,20.40
2018-06-09T05:10:47.383Z,20.30
2018-06-09T05:13:16.420Z,20.30
2018-06-09T05:15:45.073Z,20.30
2018-06-09T05:18:13.786Z,20.30
2018-06-09T05:20:42.481Z,20.30
2018-06-09T05:23:11.274Z,20.20
2018-06-09T05:25:40.022Z,20.10
2018-06-09T05:28:08.828Z,20.20
2018-06-09T05:30:37.891Z,20.30
2018-06-09T05:35:34.939Z,20.20
2018-06-09T05:38:03.752Z,20.00
2018-06-09T05:40:32.576Z,20.10
2018-06-09T05:43:01.531Z,20.20
2018-06-09T05:47:59.812Z,21.40
2018-06-09T05:50:28.728Z,22.50
2018-06-09T05:52:57.779Z,23.80
2018-06-09T05:55:26.525Z,24.50
2018-06-09T05:57:55.311Z,25.60
2018-06-09T06:00:24.627Z,26.30
2018-06-09T06:02:53.422Z,26.20
2018-06-09T06:05:22.288Z,25.90
2018-06-09T06:07:50.912Z,26.20
2018-06-09T06:10:19.694Z,26.80
2018-06-09T06:12:48.555Z,26.60
2018-06-09T06:15:17.625Z,26.80
2018-06-09T06:17:46.258Z,26.20
2018-06-09T06:20:14.856Z,25.80
2018-06-09T06:22:43.562Z,26.00
2018-06-09T06:25:12.868Z,25.80
2018-06-09T06:27:51.017Z,26.20
2018-06-09T06:30:19.656Z,25.80
2018-06-09T06:32:48.234Z,25.30
2018-06-09T06:35:22.656Z,24.80
2018-06-09T06:37:51.265Z,24.20
2018-06-09T06:40:20.465Z,23.70
2018-06-09T06:42:49.027Z,23.50
2018-06-09T06:45:17.597Z,23.30
2018-06-09T06:47:46.441Z,23.10
2018-06-09T06:50:15.046Z,22.90
2018-06-09T06:52:43.840Z,22.50
2018-06-09T06:55:12.384Z,22.40
2018-06-09T06:57:41.079Z,22.80
2018-06-09T07:00:09.874Z,23.10
2018-06-09T07:02:38.743Z,23.00
2018-06-09T07:05:07.582Z,23.10
2018-06-09T07:07:36.108Z,23.20
2018-06-09T07:10:04.826Z,23.10
2018-06-09T07:12:33.434Z,22.90
2018-06-09T07:15:02.084Z,22.70
2018-06-09T07:17:30.920Z,22.50
2018-06-09T07:19:59.538Z,22.30
2018-06-09T07:22:28.198Z,22.20
2018-06-09T07:24:56.952Z,22.20
2018-06-09T07:27:25.755Z,22.30
2018-06-09T07:29:54.560Z,22.30
2018-06-09T07:32:23.319Z,22.50
2018-06-09T07:34:51.906Z,22.70
2018-06-09T07:37:20.560Z,23.10
2018-06-09T07:39:49.219Z,23.40
2018-06-09T07:42:17.942Z,23.00
2018-06-09T07:44:46.614Z,23.00
2018-06-09T07:47:15.268Z,22.90
2018-06-09T07:49:44.092Z,22.90
2018-06-09T07:52:12.841Z,23.00
2018-06-09T07:54:42.012Z,23.20
2018-06-09T07:57:10.662Z,23.10
2018-06-09T07:59:39.480Z,23.10
2018-06-09T08:02:08.051Z,23.00
2018-06-09T08:04:36.696Z,23.00
2018-06-09T08:07:05.430Z,22.90
2018-06-09T08:09:34.142Z,22.80
2018-06-09T08:12:02.819Z,23.00
2018-06-09T08:14:31.483Z,23.20
2018-06-09T08:17:00.264Z,23.50
2018-06-09T08:19:29.077Z,23.70
2018-06-09T08:21:57.690Z,23.70
2018-06-09T08:24:26.479Z,23.40
2018-06-09T08:26:55.272Z,23.30
2018-06-09T08:29:23.914Z,23.30
2018-06-09T08:31:52.634Z,23.10
2018-06-09T08:34:21.370Z,22.90
2018-06-09T08:36:50.083Z,22.70
2018-06-09T08:39:18.704Z,22.50
2018-06-09T08:41:47.490Z,22.60
2018-06-09T08:44:16.234Z,22.70
2018-06-09T08:46:44.850Z,22.70
2018-06-09T08:49:13.482Z,22.90
2018-06-09T08:51:42.199Z,22.90
2018-06-09T08:54:11.008Z,23.10
2018-06-09T08:56:39.641Z,23.40
2018-06-09T08:59:08.299Z,23.80
2018-06-09T09:01:37.074Z,24.00
2018-06-09T09:04:05.845Z,24.00
2018-06-09T09:06:35.046Z,23.90
2018-06-09T09:09:04.019Z,24.00
2018-06-09T09:11:32.754Z,24.00
2018-06-09T09:14:01.440Z,23.80
2018-06-09T09:16:30.192Z,23.40
2018-06-09T09:18:58.751Z,23.20
2018-06-09T09:21:27.574Z,23.30
2018-06-09T09:23:56.135Z,23.50
2018-06-09T09:26:24.884Z,23.60
2018-06-09T09:28:53.660Z,23.70
2018-06-09T09:31:22.355Z,23.90
2018-06-09T09:33:50.927Z,24.00
2018-06-09T09:36:19.832Z,24.00
2018-06-09T09:38:58.283Z,23.80
2018-06-09T09:41:27.142Z,23.80
2018-06-09T09:43:56.002Z,23.70
2018-06-09T09:46:24.617Z,23.70
2018-06-09T09:48:53.269Z,23.60
2018-06-09T09:51:22.765Z,23.80
2018-06-09T09:53:52.202Z,23.90
2018-06-09T09:56:21.050Z,23.90
2018-06-09T09:58:50.547Z,23.60
2018-06-09T10:01:19.509Z,23.70
2018-06-09T10:03:48.217Z,23.70
2018-06-09T10:06:17.128Z,23.90
2018-06-09T10:08:45.916Z,24.20
2018-06-09T10:11:16.006Z,24.10
2018-06-09T10:13:44.704Z,24.00
2018-06-09T10:16:13.380Z,24.20
2018-06-09T10:18:42.077Z,24.20
2018-06-09T10:21:10.988Z,24.10
2018-06-09T10:23:39.806Z,24.30
2018-06-09T10:26:09.314Z,24.10
2018-06-09T10:28:38.038Z,24.10
2018-06-09T10:31:06.711Z,24.20
2018-06-09T10:36:03.724Z,24.20
2018-06-09T10:38:32.497Z,24.10
2018-06-09T10:41:01.174Z,24.20
2018-06-09T10:43:29.877Z,24.10
2018-06-09T10:45:58.485Z,24.00
2018-06-09T10:48:27.295Z,24.30
2018-06-09T10:50:56.166Z,24.50
2018-06-09T10:53:24.990Z,24.70
2018-06-09T10:55:53.706Z,24.70
2018-06-09T10:58:23.551Z,24.80
2018-06-09T11:00:52.338Z,25.10
2018-06-09T11:03:21.069Z,25.20
2018-06-09T11:05:49.735Z,25.50
2018-06-09T11:08:18.616Z,25.40
2018-06-09T11:13:16.081Z,24.80
2018-06-09T11:15:44.882Z,24.70
2018-06-09T11:18:13.591Z,24.70
2018-06-09T11:20:42.174Z,24.70
2018-06-09T11:23:10.954Z,24.60
2018-06-09T11:25:39.603Z,24.50
2018-06-09T11:28:08.362Z,24.50
2018-06-09T11:30:36.958Z,24.50
2018-06-09T11:33:05.764Z,24.60
2018-06-09T11:35:34.812Z,24.70
2018-06-09T11:38:03.476Z,24.80
2018-06-09T11:40:32.497Z,24.70
2018-06-09T11:43:01.711Z,24.40
2018-06-09T11:45:30.289Z,24.40
2018-06-09T11:47:59.074Z,24.60
2018-06-09T11:50:28.203Z,24.60
2018-06-09T11:52:57.252Z,24.70
2018-06-09T11:55:26.292Z,24.90
2018-06-09T11:57:54.959Z,25.00
2018-06-09T12:00:31.829Z,25.10
2018-06-09T12:03:01.337Z,25.10
2018-06-09T12:05:30.483Z,25.30
2018-06-09T12:07:59.707Z,25.50
2018-06-09T12:10:29.564Z,25.40
2018-06-09T12:12:58.603Z,25.40
2018-06-09T12:15:27.878Z,25.30
2018-06-09T12:17:57.239Z,25.30
2018-06-09T12:20:27.430Z,25.40
2018-06-09T12:22:56.687Z,25.50
2018-06-09T12:25:26.353Z,25.70
2018-06-09T12:27:56.294Z,25.70
2018-06-09T12:30:25.415Z,25.90
2018-06-09T12:32:54.645Z,26.10
2018-06-09T12:35:25.146Z,26.20
2018-06-09T12:37:55.666Z,26.10
2018-06-09T12:43:20.425Z,25.70
2018-06-09T12:45:49.023Z,25.40
2018-06-09T12:48:17.574Z,25.20
2018-06-09T12:50:46.167Z,24.70
2018-06-09T12:53:14.753Z,24.80
2018-06-09T12:55:43.479Z,24.80
2018-06-09T12:59:02.182Z,24.80
2018-06-09T13:01:30.928Z,25.00
2018-06-09T13:03:59.499Z,25.20
2018-06-09T13:06:49.203Z,25.30
2018-06-09T13:09:17.712Z,25.50
2018-06-09T13:11:46.170Z,25.60
2018-06-09T13:14:15.526Z,25.80
2018-06-09T13:16:44.469Z,26.20
2018-06-09T13:19:13.841Z,26.20
2018-06-09T13:21:41.733Z,26.10
2018-06-09T13:24:10.266Z,25.80
2018-06-09T13:26:38.761Z,25.80
2018-06-09T13:29:07.226Z,25.50
2018-06-09T13:31:36.070Z,25.00
2018-06-09T13:34:04.777Z,24.80
2018-06-09T13:36:33.503Z,24.70
2018-06-09T13:39:02.021Z,24.60
2018-06-09T13:41:30.557Z,24.50
2018-06-09T13:43:59.070Z,24.40
2018-06-09T13:46:27.571Z,24.70
2018-06-09T13:48:56.414Z,24.70
2018-06-09T13:51:24.879Z,24.50
2018-06-09T13:53:53.792Z,24.30
2018-06-09T13:56:22.334Z,24.30
2018-06-09T13:58:50.879Z,24.10
2018-06-09T14:01:20.457Z,24.00
2018-06-09T14:03:48.990Z,23.80
2018-06-09T14:06:17.537Z,23.80
2018-06-09T14:08:46.357Z,23.70
2018-06-09T14:11:14.853Z,23.60
2018-06-09T14:13:43.865Z,23.60
2018-06-09T14:16:12.427Z,23.50
2018-06-09T14:18:40.918Z,23.10
2018-06-09T14:21:09.411Z,22.60
2018-06-09T14:23:37.920Z,22.20
2018-06-09T14:26:06.421Z,22.00
2018-06-09T14:28:34.902Z,21.90
2018-06-09T14:31:03.920Z,21.70
2018-06-09T14:33:32.871Z,21.40
2018-06-09T14:36:01.331Z,21.20
2018-06-09T14:38:29.848Z,21.10
2018-06-09T14:40:58.278Z,21.00
2018-06-09T14:43:27.307Z,21.10
2018-06-09T14:45:55.823Z,21.10
2018-06-09T14:48:24.302Z,21.10
2018-06-09T14:50:52.757Z,21.10
2018-06-09T14:53:21.281Z,21.10
2018-06-09T14:55:50.451Z,21.10
2018-06-09T14:58:19.419Z,21.10
2018-06-09T15:00:47.950Z,21.10
2018-06-09T15:03:16.406Z,21.20
2018-06-09T15:05:44.887Z,21.30
2018-06-09T15:08:13.418Z,21.30
2018-06-09T15:10:41.947Z,21.30
2018-06-09T15:13:10.450Z,21.40
2018-06-09T15:15:39.177Z,21.50
2018-06-09T15:18:07.758Z,21.60
2018-06-09T15:20:36.324Z,21.70
2018-06-09T15:23:05.011Z,21.70
2018-06-09T15:25:33.615Z,21.70
2018-06-09T15:28:02.230Z,21.80
2018-06-09T15:30:30.829Z,21.80
2018-06-09T15:32:59.519Z,21.90
2018-06-09T15:35:28.290Z,22.00
2018-06-09T15:37:56.880Z,22.10
2018-06-09T15:40:26.006Z,22.20
2018-06-09T15:42:54.610Z,22.30
2018-06-09T15:45:23.423Z,22.40
2018-06-09T15:47:52.199Z,22.40
2018-06-09T15:50:21.005Z,22.40
2018-06-09T15:52:49.718Z,22.40
2018-06-09T15:55:18.573Z,22.50
2018-06-09T15:57:47.121Z,22.60
2018-06-09T16:00:16.458Z,22.60
2018-06-09T16:02:44.973Z,22.60
2018-06-09T16:05:13.450Z,22.60
2018-06-09T16:07:42.275Z,22.60
2018-06-09T16:10:11.028Z,22.50
2018-06-09T16:12:39.755Z,22.60
2018-06-09T16:15:08.265Z,22.60
2018-06-09T16:17:36.749Z,22.60
2018-06-09T16:20:05.438Z,22.60
2018-06-09T16:22:34.429Z,22.60
2018-06-09T16:25:03.072Z,22.70
2018-06-09T16:27:31.647Z,22.60
2018-06-09T16:30:00.223Z,22.70
2018-06-09T16:32:29.045Z,22.70
2018-06-09T16:34:57.928Z,22.70
2018-06-09T16:37:27.351Z,22.70
2018-06-09T16:39:56.001Z,22.60
2018-06-09T16:42:25.967Z,22.60
2018-06-09T16:44:55.031Z,22.40
2018-06-09T16:47:23.883Z,22.30
2018-06-09T16:49:52.628Z,22.30
2018-06-09T16:52:21.495Z,22.20
2018-06-09T16:54:50.323Z,22.20
2018-06-09T16:57:19.187Z,22.10
2018-06-09T16:59:48.030Z,22.10
2018-06-09T17:02:16.597Z,22.00
2018-06-09T17:04:45.394Z,21.90
2018-06-09T17:07:14.412Z,21.90
2018-06-09T17:09:43.201Z,21.90
2018-06-09T17:12:11.826Z,22.00
2018-06-09T17:14:40.608Z,21.90
2018-06-09T17:17:09.295Z,21.80
2018-06-09T17:19:38.081Z,21.90
2018-06-09T17:22:06.880Z,21.90
2018-06-09T17:24:35.613Z,21.80
2018-06-09T17:27:04.196Z,21.80
2018-06-09T17:29:33.008Z,21.90
2018-06-09T17:32:01.839Z,21.90
2018-06-09T17:34:30.606Z,21.90
2018-06-09T17:36:59.275Z,21.90
2018-06-09T17:39:27.878Z,21.90
2018-06-09T17:41:57.251Z,21.80
2018-06-09T17:46:54.129Z,21.80
2018-06-09T17:49:22.659Z,21.80
2018-06-09T17:51:51.244Z,21.80
2018-06-09T17:54:20.078Z,21.80
2018-06-09T17:56:48.809Z,21.70
2018-06-09T17:59:17.607Z,21.80
2018-06-09T18:04:14.474Z,21.80
2018-06-09T18:06:43.314Z,21.90
2018-06-09T18:09:12.074Z,21.80
2018-06-09T18:11:40.875Z,21.90
2018-06-09T18:14:09.708Z,21.90
2018-06-09T18:16:38.381Z,21.90
2018-06-09T18:21:35.662Z,22.00
2018-06-09T18:24:04.230Z,21.90
2018-06-09T18:26:32.843Z,22.00
2018-06-09T18:29:01.633Z,21.90
2018-06-09T18:31:30.143Z,21.90
2018-06-09T18:33:58.767Z,21.70
2018-06-09T18:36:27.738Z,21.60
2018-06-09T18:38:57.088Z,21.60
2018-06-09T18:41:25.855Z,21.50
2018-06-09T18:43:54.636Z,21.30
2018-06-09T18:46:23.432Z,21.10
2018-06-09T18:48:51.989Z,21.10
2018-06-09T18:51:20.811Z,21.00
2018-06-09T18:53:49.587Z,20.90
2018-06-09T18:56:18.518Z,20.80
2018-06-09T18:58:47.336Z,20.80
2018-06-09T19:01:16.036Z,20.70
2018-06-09T19:03:44.585Z,20.60
2018-06-09T19:06:13.393Z,20.50
2018-06-09T19:08:42.002Z,20.50
2018-06-09T19:11:10.595Z,20.40
2018-06-09T19:13:39.315Z,20.40
2018-06-09T19:16:07.840Z,20.40
2018-06-09T19:18:36.674Z,20.40
2018-06-09T19:21:05.423Z,20.40
2018-06-09T19:23:34.193Z,20.30
2018-06-09T19:26:03.022Z,20.20
2018-06-09T19:31:00.095Z,20.10
2018-06-09T19:33:28.706Z,20.10
2018-06-09T19:35:57.707Z,20.00
2018-06-09T19:38:27.306Z,20.00
2018-06-09T19:40:56.398Z,19.80
2018-06-09T19:43:25.007Z,19.80
2018-06-09T19:45:54.936Z,19.60
2018-06-09T19:48:23.502Z,19.60
2018-06-09T19:50:52.049Z,19.60
2018-06-09T19:53:20.497Z,19.60
2018-06-09T19:55:48.959Z,19.60
2018-06-09T19:58:17.405Z,19.60
2018-06-09T20:00:45.865Z,19.60
2018-06-09T20:03:14.344Z,19.50
2018-06-09T20:05:42.817Z,19.40
2018-06-09T20:08:11.820Z,19.40
2018-06-09T20:10:40.289Z,19.30
2018-06-09T20:15:37.614Z,19.30
2018-06-09T20:18:06.082Z,19.30
2018-06-09T20:20:34.493Z,19.20
2018-06-09T20:23:02.959Z,19.20
2018-06-09T20:25:31.565Z,19.20
2018-06-09T20:28:00.130Z,19.20
2018-06-09T20:30:28.564Z,19.20
2018-06-09T20:32:57.252Z,19.20
2018-06-09T20:35:25.833Z,19.20
2018-06-09T20:37:54.275Z,19.30
2018-06-09T20:40:22.713Z,19.30
2018-06-09T20:42:51.380Z,19.30
2018-06-09T20:45:19.818Z,19.30
2018-06-09T20:47:48.845Z,19.30
2018-06-09T20:50:17.308Z,19.30
2018-06-09T20:52:45.713Z,19.30
2018-06-09T20:55:14.165Z,19.30
2018-06-09T20:57:42.580Z,19.30
2018-06-09T21:00:11.005Z,19.30
2018-06-09T21:02:39.466Z,19.40
2018-06-09T21:05:07.897Z,19.40
2018-06-09T21:07:36.328Z,19.30
2018-06-09T21:10:04.774Z,19.30
2018-06-09T21:12:33.230Z,19.30
2018-06-09T21:15:01.637Z,19.20
2018-06-09T21:17:30.077Z,19.20
2018-06-09T21:19:58.600Z,19.30
2018-06-09T21:22:26.986Z,19.20
2018-06-09T21:24:55.418Z,19.20
2018-06-09T21:27:33.782Z,19.20
2018-06-09T21:30:07.633Z,19.10
2018-06-09T21:32:41.338Z,19.10
2018-06-09T21:35:26.286Z,19.00
2018-06-09T21:37:58.910Z,19.00
2018-06-09T21:40:31.713Z,19.00
2018-06-09T21:43:05.510Z,18.90
2018-06-09T21:45:39.158Z,18.90
2018-06-09T21:48:07.594Z,18.90
2018-06-09T21:50:36.033Z,18.90
2018-06-09T21:53:04.585Z,18.90
2018-06-09T21:55:33.994Z,18.80
2018-06-09T21:58:02.402Z,18.70
2018-06-09T22:00:30.891Z,18.70
2018-06-09T22:02:59.330Z,18.70
2018-06-09T22:07:55.929Z,18.70
2018-06-09T22:10:24.364Z,18.70
2018-06-09T22:12:53.082Z,18.70
2018-06-09T22:15:21.505Z,18.70
2018-06-09T22:17:49.937Z,18.60
2018-06-09T22:20:18.344Z,18.70
2018-06-09T22:22:47.011Z,18.60
2018-06-09T22:25:19.661Z,18.50
2018-06-09T22:27:48.787Z,18.50
2018-06-09T22:30:17.229Z,18.50
2018-06-09T22:32:45.658Z,18.50
2018-06-09T22:35:14.134Z,18.50
2018-06-09T22:37:42.537Z,18.50
2018-06-09T22:40:10.984Z,18.60
2018-06-09T22:42:39.398Z,18.60
2018-06-09T22:45:08.050Z,18.70
2018-06-09T22:47:36.495Z,18.60
2018-06-09T22:50:04.936Z,18.70
2018-06-09T22:52:33.345Z,18.70
2018-06-09T22:55:01.987Z,18.60
2018-06-09T22:57:30.637Z,18.60
2018-06-09T22:59:59.101Z,18.60
2018-06-09T23:02:27.581Z,18.50
2018-06-09T23:04:56.030Z,18.50
2018-06-09T23:07:24.460Z,18.50
2018-06-09T23:09:52.949Z,18.40
2018-06-09T23:12:21.349Z,18.40
2018-06-09T23:14:49.781Z,18.40
2018-06-09T23:17:18.221Z,18.40
2018-06-09T23:19:46.873Z,18.40
2018-06-09T23:22:15.357Z,18.40
2018-06-09T23:24:43.781Z,18.40
2018-06-09T23:27:12.210Z,18.40
2018-06-09T23:29:40.689Z,18.40
2018-06-09T23:32:09.343Z,18.40
2018-06-09T23:34:38.398Z,18.40
2018-06-09T23:37:06.950Z,18.40
2018-06-09T23:39:38.718Z,18.30
2018-06-09T23:42:07.223Z,18.30
2018-06-09T23:44:35.613Z,18.20
2018-06-09T23:49:32.146Z,18.10
2018-06-09T23:52:00.614Z,18.10
2018-06-09T23:54:29.072Z,18.10
2018-06-09T23:56:57.489Z,18.00
2018-06-09T23:59:25.915Z,18.00
